Tiempo atmosférico en la estación meteorológica de Córdoba Aeropuerto, Córdoba (90 m.)



Fecha
DESCASC
Temp. máxima en grados centígrados (hora)
DESCASC
Temp. mínima en grados centígrados (hora)
DESCASC
Temp. media en grados centígrados
DESCASC
Racha de viento máxima en m/sg (hora)
DESCASC
Velocidad máxima media en intervalos de 10 minutos(hora)
DESCASC
Precipitaciones diarias en mm
DESCASC
Precipitaciones de 00:00 a 06:00 en mm
DESCASC
Precipitaciones de 06:00 a 12:00 en mm
DESCASC
Precipitaciones de 12:00 a 18:00 en mm
DESCASC
Precipitaciones de 18:00 a 24:00 en mm
DESCASC
18-02-2018 -- (--) -- (--) -- -- (--) -- (--) -- 0 0 0 --
17-02-2018 15.9 (16:50) 3.4 (07:20) 9.6 5.83 (15:10) 3.33 (15:00) 0 0 0 0 0
16-02-2018 22.9 (16:50) 3.2 (08:00) 13 5 (12:10) 3.61 (12:10) 0 0 0 0 0
15-02-2018 21.5 (17:30) 2 (00:00) 11.8 7.22 (13:40) 4.44 (13:30) 0 0 0 0 0
14-02-2018 17.6 (16:10) 0 (00:00) 8.8 4.72 (11:50) 2.5 (17:20) 0 0 0 0 0
13-02-2018 14.9 (16:40) -0.9 (-00:0) 7 7.78 (15:00) 5.56 (16:20) 0 0 0 0 0
12-02-2018 17.4 (16:20) 5.6 (00:00) 11.5 9.72 (16:00) 6.67 (16:00) 1.2 0 1.2 0 0
11-02-2018 16.9 (16:10) -0.2 (00:00) 8.3 7.22 (18:00) 4.72 (18:00) -- 0 -- 0 0
10-02-2018 15.9 (16:10) 0.3 (00:00) 8.1 7.22 (21:50) 4.72 (13:10) 0 0 0 0 0
09-02-2018 13 (17:20) -3.1 (-00:0) 5 6.11 (16:40) 3.61 (16:40) 0 0 0 0 0
08-02-2018 14.6 (16:30) -0.5 (-00:0) 7.1 7.78 (10:50) 5.56 (11:00) 0 0 0 0 0
07-02-2018 12.2 (15:30) 2 (00:00) 7.1 11.39 (12:20) 8.06 (12:20) 0 0 0 0 0
06-02-2018 11.4 (16:20) 2.8 (00:00) 7.1 7.78 (13:10) 5 (13:20) 0 0 0 0 0
05-02-2018 8.7 (17:00) 3.8 (00:00) 6.2 8.33 (13:50) 4.72 (13:50) 0.9 0 0.7 0.2 0
04-02-2018 13.2 (16:40) 3.4 (00:00) 8.3 5.83 (14:10) 3.89 (14:10) 0.8 0.8 0 0 0
03-02-2018 14.5 (16:00) -2.9 (-00:0) 5.8 5.83 (16:50) 3.33 (17:30) 0 0 0 0 0
02-02-2018 14.1 (15:10) 0.6 (00:00) 7.4 11.39 (00:10) 6.94 (00:10) 0 0 0 0 0
01-02-2018 14.9 (16:20) 1.9 (00:00) 8.4 16.11 (23:59) 7.78 (23:59) 0 0 0 0 0
31-01-2018 17.6 (16:30) 4.3 (00:00) 11 7.78 (15:00) 5.56 (10:40) 0 0 0 0 0
30-01-2018 17.6 (16:00) 4.9 (00:00) 11.3 10.28 (11:40) 6.67 (11:50) 0 0 0 0 0
29-01-2018 19.3 (14:50) 6.3 (00:00) 12.8 16.94 (12:30) 11.67 (11:50) 0 0 0 0 0
28-01-2018 16.2 (16:00) 0.7 (00:00) 8.5 18.89 (16:00) 12.78 (16:00) 0 0 0 0 0
27-01-2018 14.7 (15:30) 0.6 (00:00) 7.6 12.5 (13:50) 7.5 (14:10) 0 0 0 0 0
26-01-2018 14.9 (15:40) 2.7 (00:00) 8.8 8.33 (16:10) 5.28 (17:50) 0 0 0 0 0
25-01-2018 14.1 (14:40) 5.8 (00:00) 10 11.67 (16:10) 7.22 (16:10) 3.5 0 0 0.2 3.3
24-01-2018 20.8 (16:00) 3.5 (00:00) 12.1 5 (11:20) 3.61 (11:30) 0 0 0 0 0
23-01-2018 21.6 (17:00) 1.8 (00:00) 11.7 4.17 (11:20) 2.78 (11:30) 0 0 0 0 0
22-01-2018 19.1 (16:30) 2.6 (00:00) 10.9 5 (12:50) 3.33 (12:50) 0 0 0 0 0

Gráficas

Temp. máximas Temp. mínimas Temp. medias Precipitaciones Rachas de viento máximas Velocidades máximas media en intervalos de 10 minutos

Datos horarios

Fecha y hora oficial Temperatura (ºC) Velocidad del viento (km/h) Dirección del viento Racha (km/h) Dirección de racha Precipitación (mm) Presión (hPa) Tendencia (hPa) Humedad (%)
2018-02-20 23:00:00 11 0 Calma 11 Oeste 0 1003.1 -0.1 68
2018-02-20 22:00:00 11.4 4 Sudeste 11 Sur 0 1003.2 0.1 69
2018-02-20 21:00:00 13.5 0 Calma 13 Este 0 1003 0.1 61
2018-02-20 20:00:00 16.6 0 Calma 5 Noroeste 0 1003.2 0 45
2018-02-20 19:00:00 19.4 0 Calma 5 Sudeste 0 1003.1 -0.6 40
2018-02-20 18:00:00 21.1 4 Sur 11 Sur 0 1002.9 -1.7 36
2018-02-20 17:00:00 20.9 6 Sur 17 Nordeste 0 1003.2 -2.5 36
2018-02-20 16:00:00 21.8 7 Sudeste 26 Sur 0 1003.7 -3 34
2018-02-20 15:00:00 20.9 6 Sudeste 18 Este 0 1004.6 -2.8 36
2018-02-20 14:00:00 19.1 9 Este 22 Este 0 1005.7 -2.3 42
2018-02-20 13:00:00 18.1 16 Este 26 Nordeste 0 1006.7 -1.5 44
2018-02-20 12:00:00 16.1 12 Este 18 Este 0 1007.4 -0.5 52
2018-02-20 11:00:00 12.8 6 Nordeste 15 Nordeste 0 1008 0.5 62
2018-02-20 10:00:00 8.5 0 Calma 4 Sudoeste 0 1008.2 1.1 76
2018-02-20 09:00:00 4.3 0 Calma -- -- 0 1007.9 1 92
2018-02-20 08:00:00 2 0 Calma -- -- 0 1007.5 0.7 94
2018-02-20 07:00:00 2.3 0 Calma -- -- 0 1007.1 0.4 93
2018-02-20 06:00:00 2.5 0 Calma -- -- 0 1006.9 0.1 93
2018-02-20 05:00:00 2.8 0 Calma -- -- 0 1006.8 0 92
2018-02-20 04:00:00 3.4 0 Calma -- -- 0 1006.7 0 89
2018-02-20 03:00:00 3.9 0 Calma -- -- 0 1006.8 0.2 89
2018-02-20 02:00:00 4.7 0 Calma -- -- 0 1006.8 0.2 86
2018-02-20 01:00:00 5.3 0 Calma -- -- 0 1006.7 0.3 86
2018-02-20 00:00:00 6.3 0 Calma -- -- 0 1006.6 0.4 81
2018-02-19 23:00:00 7.4 0 Calma -- -- 0 1006.6 0.6 76
2018-02-19 22:00:00 8.4 0 Calma 2 Oeste 0 1006.4 0.8 72
2018-02-19 21:00:00 10.8 0 Calma -- -- 0 1006.2 1.1 68
2018-02-19 20:00:00 13 0 Calma 5 Sudeste 0 1006 0.8 61
2018-02-19 19:00:00 17 0 Calma 13 Este 0 1005.6 0 44
2018-02-19 18:00:00 19 7 Este 18 Este 0 1005.1 -0.9 37
2018-02-19 17:00:00 19.3 13 Este 24 Nordeste 0 1005.2 -1.7 36
2018-02-19 16:00:00 19.4 13 Este 26 Este 0 1005.6 -2.3 36
2018-02-19 15:00:00 18.9 14 Este 22 Este 0 1006 -2.6 38
2018-02-19 14:00:00 17.1 13 Este 24 Este 0 1006.9 -1.7 40
2018-02-19 13:00:00 15.5 9 Este 17 Este 0 1007.9 -0.6 42
2018-02-19 12:00:00 12.8 6 Este 15 Nordeste 0 1008.6 0.2 48
2018-02-19 11:00:00 9.5 6 Nordeste 11 Nordeste 0 1008.6 -- 64
2018-02-19 10:00:00 7.2 0 Calma 4 Nordeste 0 1008.5 -- 74
2018-02-19 09:00:00 3.6 0 Calma -- -- -- 1008.4 -- 91
2018-02-19 08:00:00 -- -- -- -- -- -- -- -- --
2018-02-19 07:00:00 -- -- -- -- -- -- -- -- --
2018-02-19 06:00:00 -- -- -- -- -- -- -- -- --
2018-02-19 05:00:00 -- -- -- -- -- -- -- -- --
2018-02-19 04:00:00 -- -- -- -- -- -- -- -- --
2018-02-19 03:00:00 -- -- -- -- -- -- -- -- --
2018-02-19 02:00:00 -- -- -- -- -- -- -- -- --
2018-02-19 01:00:00 -- -- -- -- -- -- -- -- --
2018-02-19 00:00:00 -- -- -- -- -- -- -- -- --
2018-02-18 23:00:00 -- -- -- -- -- -- -- -- --
2018-02-18 22:00:00 -- -- -- -- -- -- -- -- --
2018-02-18 21:00:00 10.1 0 Calma -- -- 0 1008 0.5 80
2018-02-18 20:00:00 12.8 0 Calma 5 Norte 0 1007.9 0.3 70
2018-02-18 19:00:00 15.7 4 Norte 8 Norte 0 1007.6 -0.3 59
2018-02-18 18:00:00 17.3 4 Norte 8 Norte 0 1007.5 -1.2 54
2018-02-18 17:00:00 17.9 6 Nordeste 18 Nordeste 0 1007.6 -2.1 50
2018-02-18 16:00:00 19.4 6 Este 17 Este 0 1007.9 -2.6 45
2018-02-18 15:00:00 17.5 7 Este 18 Este 0 1008.7 -2.4 50
2018-02-18 14:00:00 16.6 5 Este 13 Este 0 1009.7 -1.7 51
2018-02-18 13:00:00 15.9 4 Este 18 Nordeste 0 1010.5 -0.8 55
2018-02-18 12:00:00 14.8 7 Este 21 Este 0 1011.1 0 63
2018-02-18 11:00:00 11.7 15 Este 22 Este 0 1011.4 0.7 79
2018-02-18 10:00:00 8.5 10 Este 18 Este 0 1011.3 0.5 95
2018-02-18 09:00:00 5.2 0 Calma 5 Oeste 0 1011.1 0.4 100
2018-02-18 08:00:00 5.1 0 Calma 8 Sudeste 0 1010.7 -0.1 100
2018-02-18 07:00:00 3.7 0 Calma -- -- 0 1010.8 -0.4 99
2018-02-18 06:00:00 3.5 0 Calma -- -- 0 1010.7 -0.8 98
2018-02-18 05:00:00 4 0 Calma -- -- 0 1010.8 -0.8 98
2018-02-18 04:00:00 4.7 0 Calma -- -- 0 1011.2 -0.6 98
2018-02-18 03:00:00 4.8 0 Calma -- -- 0 1011.5 -0.2 97
2018-02-18 02:00:00 5.4 0 Calma -- -- 0 1011.6 0.2 97
2018-02-18 01:00:00 5.6 0 Calma -- -- 0 1011.8 0.6 96
2018-02-18 00:00:00 6.6 0 Calma -- -- 0 1011.7 0.4 94
2018-02-17 23:00:00 7.6 0 Calma 4 Sudoeste 0 1011.4 0.1 93
2018-02-17 22:00:00 9.1 0 Calma 5 Sudoeste 0 1011.2 0.1 90
2018-02-17 21:00:00 9.8 4 Sudoeste 5 Oeste 0 1011.3 0.5 89
2018-02-17 20:00:00 12.1 3 Sur 8 Oeste 0 1011.3 0.4 83
2018-02-17 19:00:00 13.3 8 Oeste 15 Oeste 0 1011.1 0 78
2018-02-17 18:00:00 15.1 9 Oeste 17 Oeste 0 1010.8 -1 72
2018-02-17 17:00:00 15.7 9 Oeste 17 Oeste 0 1010.9 -1.9 72
2018-02-17 16:00:00 14.8 8 Oeste 21 Oeste 0 1011.1 -2.6 74
2018-02-17 15:00:00 12.5 12 Oeste 18 Oeste 0 1011.8 -2.3 80
2018-02-17 14:00:00 10.5 8 Oeste 17 Oeste 0 1012.8 -1.2 90
2018-02-17 13:00:00 10.8 3 Sudoeste 11 Sudoeste 0 1013.7 -0.2 88
2018-02-17 12:00:00 9.9 0 Calma -- -- 0 1014.1 0.6 91
2018-02-17 11:00:00 8.3 0 Calma -- -- 0 1014 0.8 96
2018-02-17 10:00:00 6.9 0 Calma -- -- 0 1013.9 1.2 97
2018-02-17 09:00:00 4.1 0 Calma -- -- 0 1013.5 1.1 97
2018-02-17 08:00:00 3.6 0 Calma -- -- 0 1013.2 0.9 97
2018-02-17 07:00:00 3.7 0 Calma -- -- 0 1012.7 0.6 97
2018-02-17 06:00:00 4.1 0 Calma -- -- 0 1012.4 0.3 96
2018-02-17 05:00:00 4.7 0 Calma -- -- 0 1012.3 -0.1 95
2018-02-17 04:00:00 5.3 0 Calma -- -- 0 1012.1 -0.4 95
2018-02-17 03:00:00 6.3 0 Calma -- -- 0 1012.1 -0.1 94
2018-02-17 02:00:00 7.5 0 Calma -- -- 0 1012.4 0.4 90
2018-02-17 01:00:00 8.2 0 Calma -- -- 0 1012.5 0.9 88
2018-02-17 00:00:00 9.9 0 Calma -- -- 0 1012.2 1 82
2018-02-16 23:00:00 10.4 0 Calma 5 Sur 0 1012 1 79
2018-02-16 22:00:00 10.6 5 Sudoeste 8 Sur 0 1011.6 1.3 77
2018-02-16 21:00:00 12.3 4 Sudoeste 8 Sudoeste 0 1011.2 1.4 74
2018-02-16 20:00:00 14.8 4 Oeste 8 Oeste 0 1011 1.2 63
2018-02-16 19:00:00 17.8 5 Sudoeste 15 Sudoeste 0 1010.3 0.2 51
2018-02-16 18:00:00 20.7 8 Sudoeste 18 Sudoeste 0 1009.8 -1.1 49
2018-02-16 17:00:00 22.6 5 Sur 15 Sur 0 1009.8 -2.1 44
2018-02-16 16:00:00 22.3 0 Calma 13 Oeste 0 1010.1 -2.9 45
2018-02-16 15:00:00 21.2 0 Calma 13 Sur 0 1010.9 -2.8 47
2018-02-16 14:00:00 19.5 3 Sudeste 15 Sudeste 0 1011.9 -2.2 52
2018-02-16 13:00:00 18 8 Este 18 Este 0 1013 -1.1 57
2018-02-16 12:00:00 16 9 Este 17 Este 0 1013.7 -0.2 63
2018-02-16 11:00:00 13.2 7 Este 13 Este 0 1014.1 0.7 73
2018-02-16 10:00:00 9.7 0 Calma -- -- 0 1014.1 0.7 86
2018-02-16 09:00:00 4.9 0 Calma -- -- 0 1013.9 0.5 98
2018-02-16 08:00:00 3.3 0 Calma -- -- 0 1013.4 0.1 98
2018-02-16 07:00:00 3.7 0 Calma -- -- 0 1013.4 -0.2 98
2018-02-16 06:00:00 4.3 0 Calma -- -- 0 1013.4 -0.4 97
2018-02-16 05:00:00 4.7 0 Calma -- -- 0 1013.3 -0.4 95
2018-02-16 04:00:00 5.2 0 Calma -- -- 0 1013.6 -0.5 95
2018-02-16 03:00:00 5.8 0 Calma -- -- 0 1013.8 -0.3 93
2018-02-16 02:00:00 6.4 0 Calma -- -- 0 1013.7 -0.3 94
2018-02-16 01:00:00 7.4 0 Calma -- -- 0 1014.1 0.5 91
2018-02-16 00:00:00 8.3 0 Calma -- -- 0 1014.1 0.5 87
2018-02-15 23:00:00 9.3 0 Calma 5 Oeste 0 1014 0.3 85
2018-02-15 22:00:00 10.5 0 Calma 5 Norte 0 1013.6 0.2 81
2018-02-15 21:00:00 11.5 0 Calma 8 Norte 0 1013.6 0.5 80
2018-02-15 20:00:00 14.1 0 Calma 2 Este 0 1013.7 0.6 71
2018-02-15 19:00:00 18.6 0 Calma 5 Sudoeste 0 1013.4 0.1 51
2018-02-15 18:00:00 20.3 0 Calma 11 Este 0 1013.1 -0.7 47
2018-02-15 17:00:00 20.5 0 Calma 15 Este 0 1013.1 -1.5 45
2018-02-15 16:00:00 19.9 4 Este 18 Este 0 1013.3 -2.3 46
2018-02-15 15:00:00 19.2 8 Este 21 Este 0 1013.8 -2.5 48
2018-02-15 14:00:00 18.4 14 Este 26 Este 0 1014.6 -1.9 50
2018-02-15 13:00:00 17 14 Este 21 Este 0 1015.6 -0.9 53
2018-02-15 12:00:00 14.3 13 Este 21 Nordeste 0 1016.3 0.2 61
2018-02-15 11:00:00 10.3 6 Nordeste 17 Nordeste 0 1016.5 0.7 75
2018-02-15 10:00:00 8.3 7 Este 13 Este 0 1016.5 0.9 82
2018-02-15 09:00:00 3.5 2 Nordeste 5 Nordeste 0 1016.1 0.9 97
2018-02-15 08:00:00 2.2 0 Calma 8 Sur 0 1015.8 1 98
2018-02-15 07:00:00 3 0 Calma -- -- 0 1015.6 0.8 97
2018-02-15 06:00:00 3 0 Calma 5 Sudoeste 0 1015.2 0.3 97
2018-02-15 05:00:00 3.7 0 Calma 11 Norte 0 1014.8 0.2 96
2018-02-15 04:00:00 3.3 0 Calma 5 Sudeste 0 1014.8 0.3 96
2018-02-15 03:00:00 3.7 0 Calma -- -- 0 1014.9 0.6 94
2018-02-15 02:00:00 4.4 0 Calma 5 Oeste 0 1014.6 0.4 93
2018-02-15 01:00:00 4.7 3 Sur 8 Sur 0 1014.5 0.5 91
2018-02-15 00:00:00 5.8 0 Calma 2 Sur 0 1014.3 0.8 88
2018-02-14 23:00:00 6.6 2 Norte 5 Norte 0 1014.2 0.8 87
2018-02-14 22:00:00 7.6 0 Calma 4 Sudeste 0 1014 1 81
2018-02-14 21:00:00 9.3 0 Calma -- -- 0 1013.5 0.8 74
2018-02-14 20:00:00 11.3 0 Calma 8 Sudoeste 0 1013.4 1 66
2018-02-14 19:00:00 12.8 6 Sur 13 Sudoeste 0 1013 0.5 61
2018-02-14 18:00:00 15.8 6 Sudoeste 15 Sudoeste 0 1012.7 -0.1 54
2018-02-14 17:00:00 16.8 8 Sudoeste 17 Sudoeste 0 1012.4 -0.8 47
2018-02-14 16:00:00 17 3 Sudoeste 15 Sur 0 1012.5 -1.7 44
2018-02-14 15:00:00 16.4 4 Sudoeste 13 Sudoeste 0 1012.8 -2.3 47
2018-02-14 14:00:00 14.9 0 Calma 8 Sur 0 1013.2 -2 53
2018-02-14 13:00:00 13.5 0 Calma 9 Sur 0 1014.2 -0.7 60
2018-02-14 12:00:00 11.3 2 Nordeste 17 Nordeste 0 1015.1 0.7 64
2018-02-14 11:00:00 8 5 Este 13 Este 0 1015.2 1.3 73
2018-02-14 10:00:00 4.5 0 Calma -- -- 0 1014.9 1.6 87
2018-02-14 09:00:00 0.8 0 Calma -- -- 0 1014.4 1.1 97
2018-02-14 08:00:00 0 0 Calma -- -- 0 1013.9 0.9 97
2018-02-14 07:00:00 0.3 0 Calma -- -- 0 1013.3 0.3 96
2018-02-14 06:00:00 0.4 0 Calma -- -- 0 1013.3 0.4 97
2018-02-14 05:00:00 0.8 0 Calma -- -- 0 1013 -0.5 95
2018-02-14 04:00:00 1.1 0 Calma -- -- 0 1013 -0.5 95
2018-02-14 03:00:00 1.7 0 Calma -- -- 0 1012.9 -0.3 93
2018-02-14 02:00:00 2.3 0 Calma -- -- 0 1013.5 0.4 91
2018-02-14 01:00:00 2.9 0 Calma -- -- 0 1013.5 0.8 90
2018-02-14 00:00:00 3.4 0 Calma -- -- 0 1013.2 0.6 83
2018-02-13 23:00:00 4.5 0 Calma -- -- 0 1013.1 1 80
2018-02-13 22:00:00 5.5 0 Calma 2 Sur 0 1012.7 1.1 78
2018-02-13 21:00:00 7 0 Calma 4 Norte 0 1012.6 1.3 71
2018-02-13 20:00:00 9.1 0 Calma 8 Sudoeste 0 1012.1 1 59
2018-02-13 19:00:00 11.7 4 Sudoeste 17 Sudoeste 0 1011.6 0 48
2018-02-13 18:00:00 13.8 13 Sudoeste 22 Sudoeste 0 1011.3 -0.9 43
2018-02-13 17:00:00 14.4 15 Sudoeste 28 Sudoeste 0 1011.1 -1.9 42
2018-02-13 16:00:00 14.6 15 Sudoeste 28 Sudoeste 0 1011.6 -2.2 45
2018-02-13 15:00:00 14 15 Oeste 28 Oeste 0 1012.2 -2.4 44
2018-02-13 14:00:00 13.3 15 Sudoeste 24 Oeste 0 1013 -1.4 52
2018-02-13 13:00:00 11.8 15 Sudoeste 24 Oeste 0 1013.8 -0.9 57
2018-02-13 12:00:00 9.9 7 Oeste 15 Oeste 0 1014.6 0.5 61
2018-02-13 11:00:00 7.4 0 Calma 5 Sudoeste 0 1014.4 0.9 66
2018-02-13 10:00:00 4.3 0 Calma -- -- 0 1014.7 1.8 81
2018-02-13 09:00:00 0 0 Calma -- -- 0 1014.1 1.6 97
2018-02-13 08:00:00 -0.8 0 Calma 4 Sudoeste 0 1013.5 0.8 98
2018-02-13 07:00:00 -0.4 0 Calma -- -- 0 1012.9 0.3 97
2018-02-13 06:00:00 -0.4 0 Calma -- -- 0 1012.5 -0.2 96
2018-02-13 05:00:00 0.1 0 Calma -- -- 0 1012.7 0.1 96
2018-02-13 04:00:00 0.2 0 Calma -- -- 0 1012.6 -0.1 95
2018-02-13 03:00:00 1.3 0 Calma -- -- 0 1012.7 0.5 93
2018-02-13 02:00:00 2.4 0 Calma 5 Sudoeste 0 1012.6 0.9 91
2018-02-13 01:00:00 3.1 6 Oeste 11 Oeste 0 1012.7 1.5 86
2018-02-13 00:00:00 5.7 3 Sur 22 Oeste 0 1012.2 1.2 72
2018-02-12 23:00:00 11.3 11 Noroeste 32 Noroeste 0 1011.7 1 32
2018-02-12 22:00:00 9.2 9 Oeste 22 Oeste 0 1011.2 1.3 52
2018-02-12 21:00:00 7.7 3 Sur 13 Oeste 0 1011 1.7 71
2018-02-12 20:00:00 10.1 6 Noroeste 13 Oeste 0 1010.7 1.9 61
2018-02-12 19:00:00 12.8 11 Oeste 24 Oeste 0 1009.9 1.1 48
2018-02-12 18:00:00 16 16 Oeste 32 Noroeste 0 1009.3 0.4 39
2018-02-12 17:00:00 16.9 21 Noroeste 32 Noroeste 0 1008.8 -1 40
2018-02-12 16:00:00 17 24 Oeste 35 Noroeste 0 1008.8 -1.9 45
2018-02-12 15:00:00 16.3 12 Sudoeste 24 Oeste 0 1008.9 -2.2 68
2018-02-12 14:00:00 14.4 16 Oeste 28 Oeste 0 1009.8 -1.4 82
2018-02-12 13:00:00 13 14 Oeste 22 Oeste 0 1010.7 -0.6 89
2018-02-12 12:00:00 11.9 14 Oeste 22 Sudoeste 0.1 1011.1 0.2 93
2018-02-12 11:00:00 10.7 15 Sudoeste 21 Oeste 0.8 1011.2 0.6 97
2018-02-12 10:00:00 10 14 Oeste 21 Oeste 0.3 1011.3 0.9 96
2018-02-12 09:00:00 9.7 11 Oeste 18 Oeste 0 1010.9 0.3 96
2018-02-12 08:00:00 9.7 11 Sudoeste 17 Oeste 0 1010.6 -0.2 93
2018-02-12 07:00:00 9.9 8 Oeste 15 Sudoeste 0 1010.4 -0.8 91
2018-02-12 06:00:00 9.9 7 Sudoeste 13 Oeste 0 1010.6 -1 89
2018-02-12 05:00:00 9.9 6 Sudoeste 11 Oeste 0 1010.8 -1.4 86
2018-02-12 04:00:00 9.8 5 Oeste 8 Oeste 0 1011.2 -1.4 85
2018-02-12 03:00:00 9.8 4 Oeste 8 Oeste 0 1011.6 -1.1 83
2018-02-12 02:00:00 9.8 4 Oeste 11 Oeste 0 1012.2 -0.7 80
2018-02-12 01:00:00 10.2 5 Oeste 13 Oeste 0 1012.6 -0.3 76
2018-02-12 00:00:00 10.1 4 Oeste 18 Sudoeste 0 1012.7 0 76
2018-02-11 23:00:00 10.6 9 Sudoeste 17 Sudoeste 0 1012.9 0.7 72
2018-02-11 22:00:00 11 0 Calma 15 Sudoeste 0 1012.9 1.3 73
2018-02-11 21:00:00 9.7 10 Sudoeste 24 Sudoeste 0 1012.7 1.4 75
2018-02-11 20:00:00 11.5 2 Sudoeste 11 Oeste 0 1012.2 0.8 67
2018-02-11 19:00:00 13.3 8 Sudoeste 22 Sudoeste 0 1011.6 -0.3 63
2018-02-11 18:00:00 16 17 Oeste 26 Oeste 0 1011.3 -1.1 52
2018-02-11 17:00:00 16.5 14 Sudoeste 22 Oeste 0 1011.4 -2.2 51
2018-02-11 16:00:00 16.8 9 Sudoeste 18 Sudoeste 0 1011.9 -2.7 46
2018-02-11 15:00:00 16.5 6 Sudoeste 13 Sudoeste 0 1012.4 -2.9 43
2018-02-11 14:00:00 14.7 2 Sudoeste 11 Sur 0 1013.6 -2.1 45
2018-02-11 13:00:00 12.9 2 Sur 8 Sur 0 1014.6 -1.3 49
2018-02-11 12:00:00 10.1 0 Calma 15 Este 0 1015.3 0.1 55
2018-02-11 11:00:00 7.4 8 Nordeste -- -- -- 1015.7 1.4 67
2018-02-11 10:00:00 5.2 4 Este 11 Este 0 1015.9 2 81
2018-02-11 09:00:00 0 0 Calma 2 Sudeste 0 1015.2 1.7 96
2018-02-11 08:00:00 -0.1 0 Calma -- -- 0 1014.3 0.8 96
2018-02-11 07:00:00 0.2 0 Calma -- -- 0 1013.9 0.5 96
2018-02-11 06:00:00 0.5 0 Calma -- -- 0 1013.5 0 95
2018-02-11 05:00:00 0.5 0 Calma 5 Oeste 0 1013.5 0.2 95
2018-02-11 04:00:00 1.4 0 Calma -- -- 0 1013.4 0.1 93
2018-02-11 03:00:00 2 0 Calma 5 Sudoeste 0 1013.5 0.7 91
2018-02-11 02:00:00 2.8 4 Sudoeste 5 Sudoeste 0 1013.3 0.7 90
2018-02-11 01:00:00 4.3 2 Norte 5 Norte 0 1013.3 0.7 83
2018-02-11 00:00:00 5.7 0 Calma 13 Sur 0 1012.8 0.8 77
2018-02-10 23:00:00 8.3 2 Noroeste 15 Nordeste 0 1012.6 1 65
2018-02-10 22:00:00 10.7 5 Nordeste 26 Norte 0 1012.6 2 58
2018-02-10 21:00:00 9.9 3 Nordeste 22 Norte 0 1012 1.9 60
2018-02-10 20:00:00 9.1 0 Calma 11 Noroeste 0 1011.6 1.7 62
2018-02-10 19:00:00 11.8 8 Noroeste 11 Noroeste 0 1010.6 0.1 54
2018-02-10 18:00:00 14.7 0 Calma 17 Oeste 0 1010.1 -1 46
2018-02-10 17:00:00 15.1 6 Oeste 15 Sudoeste 0 1009.9 -2 48
2018-02-10 16:00:00 15.1 3 Oeste 17 Sudeste 0 1010.5 -2.6 43
2018-02-10 15:00:00 14.5 0 Calma 18 Este 0 1011.1 -2.3 45
2018-02-10 14:00:00 13.5 14 Este 24 Este 0 1011.9 -1.6 45
2018-02-10 13:00:00 12.2 15 Este 22 Nordeste 0 1013.1 -0.4 51
2018-02-10 12:00:00 9.7 6 Este 17 Este 0 1013.4 0.1 65
2018-02-10 11:00:00 7.6 5 Este 11 Nordeste 0 1013.5 1 71
2018-02-10 10:00:00 4.1 0 Calma -- -- 0 1013.5 0.8 85
2018-02-10 09:00:00 0.5 0 Calma -- -- 0 1013.3 1 95
2018-02-10 08:00:00 0.4 0 Calma 5 Norte 0 1012.5 0.4 95
2018-02-10 07:00:00 0.5 0 Calma -- -- 0 1012.7 0.5 95
2018-02-10 06:00:00 0.5 0 Calma -- -- 0 1012.3 0 93
2018-02-10 05:00:00 1 0 Calma -- -- 0 1012.1 -0.4 92
2018-02-10 04:00:00 1.5 0 Calma -- -- 0 1012.2 -0.6 89
2018-02-10 03:00:00 2.2 0 Calma -- -- 0 1012.3 -0.3 88
2018-02-10 02:00:00 2.9 0 Calma -- -- 0 1012.5 -0.2 86
2018-02-10 01:00:00 2.7 0 Calma 4 Norte 0 1012.8 0.4 85
2018-02-10 00:00:00 3.6 0 Calma 5 Norte 0 1012.6 0.5 81
2018-02-09 23:00:00 3.7 0 Calma 4 Sur 0 1012.7 1.1 78
2018-02-09 22:00:00 4.2 6 Sur 8 Sur 0 1012.4 1.1 78
2018-02-09 21:00:00 5.5 0 Calma 2 Sur 0 1012.1 1.7 71
2018-02-09 20:00:00 7.6 4 Sudoeste 8 Sur 0 1011.6 1.6 63
2018-02-09 19:00:00 9.2 0 Calma 15 Oeste 0 1011.3 1 54
2018-02-09 18:00:00 11.6 11 Sudoeste 21 Sudoeste 0 1010.4 -0.5 45
2018-02-09 17:00:00 12.6 10 Sudoeste 22 Oeste 0 1010 -1.4 41
2018-02-09 16:00:00 12.2 9 Sudoeste 18 Sur 0 1010.3 -2.1 41
2018-02-09 15:00:00 11.6 5 Sudoeste 18 Oeste 0 1010.9 -2 41
2018-02-09 14:00:00 11.2 3 Sudoeste 9 Sur 0 1011.4 -1.2 44
2018-02-09 13:00:00 10.6 3 Sudeste 11 Este 0 1012.4 -0.2 45
2018-02-09 12:00:00 7 4 Este 15 Este 0 1012.9 0.8 56
2018-02-09 11:00:00 4.7 7 Este 13 Este 0 1012.6 1 65
2018-02-09 10:00:00 2.4 5 Este 13 Este 0 1012.6 1.5 79
2018-02-09 09:00:00 -1.6 0 Calma -- -- 0 1012.1 1.2 94
2018-02-09 08:00:00 -3.1 0 Calma -- -- 0 1011.6 0.8 94
2018-02-09 07:00:00 -2.8 0 Calma -- -- 0 1011.1 0.2 94
2018-02-09 06:00:00 -2.5 0 Calma -- -- 0 1010.9 -0.2 93
2018-02-09 05:00:00 -1.8 0 Calma -- -- 0 1010.8 -0.2 92
2018-02-09 04:00:00 -1.3 0 Calma -- -- 0 1010.9 -0.1 89
2018-02-09 03:00:00 -0.5 0 Calma -- -- 0 1011.1 0.1 88
2018-02-09 02:00:00 -0.3 0 Calma 4 Este 0 1011 0.1 86
2018-02-09 01:00:00 1.6 3 Nordeste 5 Nordeste 0 1011 0.6 75
2018-02-09 00:00:00 2.1 4 Este 13 Este 0 1011 1.3 71
2018-02-08 23:00:00 3.1 7 Este 15 Este 0 1010.9 1.8 66
2018-02-08 22:00:00 4.2 9 Este 15 Este 0 1010.4 2 62
2018-02-08 21:00:00 6.2 6 Nordeste 15 Nordeste 0 1009.7 2.1 50
2018-02-08 20:00:00 7.8 9 Norte 15 Nordeste 0 1009.1 1.9 45
2018-02-08 19:00:00 10.2 11 Norte 24 Nordeste 0 1008.4 1.3 39
2018-02-08 18:00:00 13.1 4 Este 15 Nordeste 0 1007.6 0.2 38
2018-02-08 17:00:00 13.9 6 Este 15 Este 0 1007.2 -1 33
2018-02-08 16:00:00 14 5 Sudeste 21 Este 0 1007.1 -1.7 32
2018-02-08 15:00:00 13.2 15 Este 26 Este 0 1007.4 -1.9 33
2018-02-08 14:00:00 12.4 13 Este 22 Este 0 1008.2 -1 36
2018-02-08 13:00:00 11 12 Este 24 Este 0 1008.8 -0.4 40
2018-02-08 12:00:00 9.4 17 Este 26 Este 0 1009.3 0.8 43
2018-02-08 11:00:00 7.8 20 Este 28 Este 0 1009.2 1.1 47
2018-02-08 10:00:00 4.8 13 Este 17 Este 0 1009.2 1.5 66
2018-02-08 09:00:00 0.8 12 Este 18 Este 0 1008.5 1.1 84
2018-02-08 08:00:00 -0.5 10 Este 15 Este 0 1008.1 1.2 87
2018-02-08 07:00:00 0 0 Calma 9 Nordeste 0 1007.7 0.8 87
2018-02-08 06:00:00 0 3 Nordeste 8 Este 0 1007.4 0.3 85
2018-02-08 05:00:00 0.3 4 Norte 8 Nordeste 0 1006.9 -0.2 85
2018-02-08 04:00:00 0.6 0 Calma 13 Este 0 1006.9 0 83
2018-02-08 03:00:00 0.5 5 Este 13 Este 0 1007.1 0.3 84
2018-02-08 02:00:00 0.7 7 Este 18 Este 0 1007.1 0.3 82
2018-02-08 01:00:00 0.9 13 Este 17 Este 0 1006.9 0.3 81
2018-02-08 00:00:00 2.1 10 Este 17 Este 0 1006.8 0.4 75
2018-02-07 23:00:00 2.7 12 Este 17 Este 0 1006.8 0.8 71
2018-02-07 22:00:00 3.5 6 Este 13 Este 0 1006.6 1.3 66
2018-02-07 21:00:00 5.2 9 Nordeste 18 Nordeste 0 1006.4 2.2 56
2018-02-07 20:00:00 6.6 14 Nordeste 21 Norte 0 1006 2.3 51
2018-02-07 19:00:00 8.4 12 Norte 30 Nordeste 0 1005.3 1.9 44
2018-02-07 18:00:00 10.6 19 Este 35 Este 0 1004.2 0.6 37
2018-02-07 17:00:00 12 21 Este 37 Este 0 1003.7 -0.5 39
2018-02-07 16:00:00 12 23 Este 37 Este 0 1003.4 -1.6 40
2018-02-07 15:00:00 11.7 22 Este 35 Este 0 1003.6 -2 42
2018-02-07 14:00:00 11 23 Este 35 Este 0 1004.2 -1.2 45
2018-02-07 13:00:00 10.1 27 Este 41 Este 0 1005 -0.1 49
2018-02-07 12:00:00 8.7 24 Este 37 Nordeste 0 1005.6 1.2 54
2018-02-07 11:00:00 7.3 24 Este 35 Este 0 1005.4 1.7 64
2018-02-07 10:00:00 5.4 15 Este 26 Este 0 1005.1 2.1 80
2018-02-07 09:00:00 4.9 14 Este 26 Nordeste 0 1004.4 1.8 83
2018-02-07 08:00:00 5.1 16 Nordeste 24 Nordeste 0 1003.7 1.2 82
2018-02-07 07:00:00 4.7 10 Este 21 Este 0 1003 0.3 86
2018-02-07 06:00:00 5 15 Este 22 Nordeste 0 1002.6 -0.1 84
2018-02-07 05:00:00 5.2 20 Nordeste 26 Nordeste 0 1002.5 -0.4 81
2018-02-07 04:00:00 4.9 17 Nordeste 24 Nordeste 0 1002.7 -0.3 84
2018-02-07 03:00:00 4.9 18 Este 26 Este 0 1002.7 -0.1 86
2018-02-07 02:00:00 3.6 9 Este 15 Este 0 1002.9 0 94
2018-02-07 01:00:00 3.7 0 Calma 9 Este 0 1003 0.3 90
2018-02-07 00:00:00 4.2 2 Este 13 Este 0 1002.8 0.8 89
2018-02-06 23:00:00 5.9 8 Este 15 Nordeste 0 1002.9 1.4 82
2018-02-06 22:00:00 6.5 12 Nordeste 17 Norte 0 1002.7 1.8 79
2018-02-06 21:00:00 6.8 10 Nordeste 13 Nordeste 0 1002 1.5 79
2018-02-06 20:00:00 6.6 4 Nordeste 13 Este 0 1001.5 1.4 78
2018-02-06 19:00:00 8.1 3 Este 8 Este 0 1000.9 0.7 70
2018-02-06 18:00:00 9.6 0 Calma 9 Sur 0 1000.5 0.3 61
2018-02-06 17:00:00 10.9 0 Calma 11 Sur 0 1000.1 -0.2 52
2018-02-06 16:00:00 10.8 0 Calma 15 Este 0 1000.2 -0.7 56
2018-02-06 15:00:00 11.1 9 Este 24 Nordeste 0 1000.2 -0.7 57
2018-02-06 14:00:00 10.3 8 Nordeste 28 Norte 0 1000.3 -0.1 58
2018-02-06 13:00:00 9.7 14 Norte 26 Norte 0 1000.9 1.3 60
2018-02-06 12:00:00 10.4 4 Este 11 Sudeste 0 1000.9 2 65
2018-02-06 11:00:00 7.8 0 Calma 5 Sur 0 1000.4 2.1 81
2018-02-06 10:00:00 4.7 3 Sudoeste 5 Sudoeste 0 999.6 1.7 99
2018-02-06 09:00:00 3.7 0 Calma -- -- 0 998.9 1.3 100
2018-02-06 08:00:00 3.3 0 Calma -- -- 0 998.3 0.9 100
2018-02-06 07:00:00 3.1 0 Calma 2 Sudoeste 0 997.9 0.4 100
2018-02-06 06:00:00 3.1 0 Calma 8 Sudoeste 0 997.6 0.1 100
2018-02-06 05:00:00 3.3 0 Calma 4 Sudoeste 0 997.4 0 100
2018-02-06 04:00:00 3.3 0 Calma 4 Noroeste 0 997.5 0 100
2018-02-06 03:00:00 3.3 0 Calma 5 Oeste 0 997.5 -0.1 100
2018-02-06 02:00:00 3.6 4 Sudoeste 5 Sur 0 997.4 -0.2 99
2018-02-06 01:00:00 4 0 Calma 4 Nordeste 0 997.5 0.1 98
2018-02-06 00:00:00 4.9 0 Calma 2 Este 0 997.6 0.3 98
2018-02-05 23:00:00 4.4 0 Calma 2 Oeste 0 997.6 0.7 96
2018-02-05 22:00:00 5.2 0 Calma 11 Nordeste 0 997.4 1.1 94
2018-02-05 21:00:00 5.7 0 Calma 11 Sudoeste 0 997.3 1.3 93
2018-02-05 20:00:00 6.1 9 Sudoeste 13 Sudoeste 0 996.9 1.1 90
2018-02-05 19:00:00 6.5 5 Sudoeste 17 Sudoeste 0 996.3 0.4 83
2018-02-05 18:00:00 8 11 Oeste 18 Oeste 0 996 -0.3 76
2018-02-05 17:00:00 8.6 5 Oeste -- -- -- 995.8 -1 73
2018-02-05 16:00:00 7.2 10 Sudoeste 18 Sudoeste 0 995.9 -1.3 83
2018-02-05 15:00:00 7.5 10 Nordeste 17 Nordeste 0 996.3 -1.3 82
2018-02-05 14:00:00 7.3 10 Oeste 30 Oeste 0.1 996.8 -0.7 77
2018-02-05 13:00:00 7.3 10 Oeste 18 Oeste 0.1 997.2 -0.1 85
2018-02-05 12:00:00 6.3 11 Sudoeste 18 Sudoeste 0 997.6 0.7 90
2018-02-05 11:00:00 5.3 13 Oeste 18 Oeste 0 997.5 0.9 95
2018-02-05 10:00:00 4.4 4 Oeste 11 Oeste 0 997.3 1 96
2018-02-05 09:00:00 4.3 5 Oeste 13 Oeste 0 996.9 0.5 96
2018-02-05 08:00:00 4.1 3 Oeste 11 Sur 0.7 996.6 0.3 96
2018-02-05 07:00:00 4 0 Calma 9 Oeste 0 996.3 -0.3 96
2018-02-05 06:00:00 4.4 4 Oeste 9 Oeste 0 996.4 -0.6 97
2018-02-05 05:00:00 4 4 Oeste 8 Oeste 0 996.3 -0.9 96
2018-02-05 04:00:00 3.8 0 Calma 8 Sudoeste 0 996.6 -0.7 94
2018-02-05 03:00:00 4.4 0 Calma 4 Noroeste 0 997 -0.2 90
2018-02-05 02:00:00 4.8 0 Calma 5 Sudoeste 0 997.2 -0.3 91
2018-02-05 01:00:00 4.8 0 Calma 4 Norte 0 997.3 -0.2 90
2018-02-05 00:00:00 5.3 0 Calma 11 Noroeste 0 997.2 -0.6 78
2018-02-04 23:00:00 7 9 Noroeste 18 Noroeste 0 997.5 0.3 70
2018-02-04 22:00:00 7.5 0 Calma 13 Nordeste 0 997.5 0.9 72
2018-02-04 21:00:00 8 3 Este 11 Este 0 997.8 1.4 77
2018-02-04 20:00:00 8.4 4 Este 11 Norte 0 997.2 0.7 71
2018-02-04 19:00:00 9.1 8 Norte 13 Noroeste 0 996.6 -0.2 63
2018-02-04 18:00:00 10.6 7 Oeste 13 Oeste 0 996.4 -1.4 56
2018-02-04 17:00:00 11.5 13 Oeste 21 Oeste 0 996.5 -2.3 52
2018-02-04 16:00:00 12.5 10 Sudoeste 21 Oeste 0 996.8 -3.1 58
2018-02-04 15:00:00 10.7 11 Oeste 21 Sudoeste 0 997.8 -3 70
2018-02-04 14:00:00 10.3 14 Sudoeste 18 Sudoeste 0 998.8 -2.5 74
2018-02-04 13:00:00 9 6 Sudoeste 13 Noroeste 0 999.9 -1.5 85
2018-02-04 12:00:00 7.9 5 Oeste 11 Oeste 0 1000.8 -1 88
2018-02-04 11:00:00 6.3 4 Oeste 13 Sudoeste 0 1001.3 -0.7 94
2018-02-04 10:00:00 4.9 5 Sudoeste 8 Sudoeste 0 1001.4 -0.8 98
2018-02-04 09:00:00 3.5 5 Oeste 8 Oeste 0 1001.8 -1.4 98
2018-02-04 08:00:00 3.6 4 Oeste 11 Oeste 0 1002 -1.7 95
2018-02-04 07:00:00 4.4 5 Oeste 13 Sudoeste 0 1002.2 -2.4 94
2018-02-04 06:00:00 4.6 4 Sudoeste 8 Sudoeste 0 1003.2 -2 95
2018-02-04 05:00:00 4.7 4 Sudoeste 13 Sudoeste 0.8 1003.7 -2.6 93
2018-02-04 04:00:00 5.1 8 Oeste 13 Oeste 0 1004.6 -2.7 88
2018-02-04 03:00:00 5.2 5 Oeste 11 Oeste 0 1005.2 -2.6 83
2018-02-04 02:00:00 4.5 5 Oeste 11 Oeste 0 1006.3 -1.9 78
2018-02-04 01:00:00 4 2 Oeste 5 Oeste 0 1007.3 -0.9 82
2018-02-04 00:00:00 3.9 0 Calma -- -- 0 1007.8 -0.6 78
2018-02-03 23:00:00 5 0 Calma 8 Sudoeste 0 1008.2 -0.3 72
2018-02-03 22:00:00 5.1 5 Sudoeste 11 Oeste 0 1008.2 -0.2 75
2018-02-03 21:00:00 6.3 5 Sur 8 Sudeste 0 1008.4 0.3 71
2018-02-03 20:00:00 7.7 5 Sur 8 Sudeste 0 1008.5 0.1 66
2018-02-03 19:00:00 10 5 Sudoeste 13 Oeste 0 1008.4 -0.3 53
2018-02-03 18:00:00 12 7 Sudoeste 17 Sur 0 1008.1 -1.4 49
2018-02-03 17:00:00 14 7 Sudoeste -- -- -- 1008.4 -1.9 42
2018-02-03 16:00:00 14.3 6 Sur 15 Sur 0 1008.7 -2.9 38
2018-02-03 15:00:00 13.6 0 Calma 8 Sudoeste 0 1009.5 -2.8 37
2018-02-03 14:00:00 12.3 0 Calma 11 Nordeste 0 1010.3 -2.5 44
2018-02-03 13:00:00 9.6 0 Calma 11 Este 0 1011.6 -1 52
2018-02-03 12:00:00 8 0 Calma 11 Este 0 1012.3 0.1 54
2018-02-03 11:00:00 5 0 Calma 4 Este 0 1012.8 1.5 67
2018-02-03 10:00:00 1.4 0 Calma 5 Sur 0 1012.6 1.7 83
2018-02-03 09:00:00 -1.8 0 Calma -- -- 0 1012.2 1.8 96
2018-02-03 08:00:00 -2.7 0 Calma 5 Oeste 0 1011.3 1.1 94
2018-02-03 07:00:00 -2 0 Calma 5 Sudeste 0 1010.9 0.5 94
2018-02-03 06:00:00 -1.8 0 Calma -- -- 0 1010.4 0.3 94
2018-02-03 05:00:00 -1.7 0 Calma 5 Este 0 1010.2 0.4 94
2018-02-03 04:00:00 -1 0 Calma 5 Sudoeste 0 1010.4 1 91
2018-02-03 03:00:00 -0.4 0 Calma 5 Sur 0 1010.1 1.1 90
2018-02-03 02:00:00 0.8 0 Calma 8 Oeste 0 1009.8 1 84
2018-02-03 01:00:00 1.1 7 Sur 15 Sudoeste 0 1009.4 1.5 84
2018-02-03 00:00:00 2 0 Calma 8 Nordeste 0 1009 1.8 80
2018-02-02 23:00:00 3.4 0 Calma 5 Sur 0 1008.8 2.6 72
2018-02-02 22:00:00 4.1 2 Sur 8 Este 0 1007.9 2.6 71
2018-02-02 21:00:00 5.3 0 Calma 13 Noroeste 0 1007.2 2.7 64
2018-02-02 20:00:00 7.1 6 Noroeste 15 Noroeste 0 1006.2 2.2 56
2018-02-02 19:00:00 10.4 4 Oeste 21 Noroeste 0 1005.3 1.9 41
2018-02-02 18:00:00 12.8 15 Noroeste 28 Noroeste 0 1004.5 1.5 31
2018-02-02 17:00:00 13.4 9 Noroeste 28 Noroeste 0 1004 0.7 31
2018-02-02 16:00:00 13.1 20 Norte 33 Norte 0 1003.4 -0.5 32
2018-02-02 15:00:00 13.8 12 Norte 24 Norte 0 1003 -1.2 33
2018-02-02 14:00:00 12.9 12 Nordeste 33 Norte 0 1003.3 -0.6 37
2018-02-02 13:00:00 12 15 Norte 26 Nordeste 0 1003.9 0.5 37
2018-02-02 12:00:00 10.1 6 Sudoeste 15 Oeste 0 1004.2 1.7 55
2018-02-02 11:00:00 8 10 Sudoeste 15 Sudoeste 0 1003.9 2.3 67
2018-02-02 10:00:00 5.3 7 Sur 11 Sur 0 1003.4 2.8 80
2018-02-02 09:00:00 1.2 4 Sudeste 9 Oeste 0 1002.5 2.7 94
2018-02-02 08:00:00 1.7 2 Sur 13 Oeste 0 1001.6 2.3 89
2018-02-02 07:00:00 3.2 12 Oeste 21 Norte 0 1000.6 1.3 87
2018-02-02 06:00:00 4 4 Noroeste 22 Noroeste 0 999.8 0.5 83
2018-02-02 05:00:00 3.9 7 Oeste 15 Noroeste 0 999.3 0 85
2018-02-02 04:00:00 4.6 8 Oeste 11 Oeste 0 999.3 -0.1 81
2018-02-02 03:00:00 6.8 0 Calma 15 Oeste 0 999.3 -0.4 72
2018-02-02 02:00:00 7.3 13 Oeste 24 Norte 0 999.3 1.2 72
2018-02-02 01:00:00 7.6 0 Calma 41 Norte 0 999.4 1.2 69
2018-02-02 00:00:00 9.5 28 Norte 58 Norte 0 999.7 2.3 59
2018-02-01 23:00:00 10.4 15 Oeste 30 Oeste 0 998.1 -0.3 47
2018-02-01 22:00:00 9.7 14 Oeste 22 Oeste 0 998.2 -0.3 72
2018-02-01 21:00:00 9.5 12 Sudoeste 18 Oeste 0 997.4 -0.6 75
2018-02-01 20:00:00 11.8 8 Sudoeste 11 Sudoeste 0 998.4 -0.2 74
2018-02-01 19:00:00 12.8 6 Oeste 22 Sudoeste 0 998.5 -1.4 68
2018-02-01 18:00:00 14.2 15 Oeste 28 Oeste 0 998 -3.3 63
2018-02-01 17:00:00 14.8 18 Sudoeste 30 Sudoeste 0 998.6 -4 62
2018-02-01 16:00:00 13.9 15 Oeste 26 Oeste 0 999.9 -4.5 74
2018-02-01 15:00:00 12.5 15 Oeste 22 Oeste 0 1001.3 -4.2 79
2018-02-01 14:00:00 11.3 12 Oeste 22 Oeste 0 1002.6 -3.2 82
2018-02-01 13:00:00 10.2 14 Oeste 21 Oeste 0 1004.4 -1.3 86
2018-02-01 12:00:00 8.5 0 Calma -- -- 0 1005.5 -0.6 85
2018-02-01 11:00:00 6.8 0 Calma -- -- 0 1005.8 0.1 92
2018-02-01 10:00:00 4.9 0 Calma -- -- 0 1005.7 0 99
2018-02-01 09:00:00 2.3 0 Calma -- -- 0 1006.1 0.6 99
2018-02-01 08:00:00 2 0 Calma -- -- 0 1005.7 -0.1 99
2018-02-01 07:00:00 2.9 0 Calma -- -- 0 1005.7 -0.4 98
2018-02-01 06:00:00 3.5 0 Calma 5 Oeste 0 1005.5 -1.3 98
2018-02-01 05:00:00 4 0 Calma -- -- 0 1005.8 -1.4 96
2018-02-01 04:00:00 4.6 0 Calma -- -- 0 1006.1 -1.7 96
2018-02-01 03:00:00 5.2 0 Calma 4 Norte 0 1006.8 -0.9 93
2018-02-01 02:00:00 5.9 0 Calma -- -- 0 1007.2 -0.7 91
2018-02-01 01:00:00 7.6 0 Calma 8 Sur 0 1007.8 -0.4 85
2018-02-01 00:00:00 8.1 6 Sur 8 Sur 0 1007.7 -0.4 86
2018-01-31 23:00:00 8.6 6 Sur 8 Sur 0 1007.9 0.3 82
2018-01-31 22:00:00 9.7 7 Oeste 13 Oeste 0 1008.2 1.3 76
2018-01-31 21:00:00 9.9 6 Sudoeste 18 Sudoeste 0 1008.1 1.5 78
2018-01-31 20:00:00 11.3 0 Calma 4 Sudeste 0 1007.6 0.4 66
2018-01-31 19:00:00 13.5 2 Sudeste 13 Sudeste 0 1006.9 -0.5 53
2018-01-31 18:00:00 15.4 8 Sudeste 21 Nordeste 0 1006.6 -1.4 47
2018-01-31 17:00:00 16.9 15 Este 26 Este 0 1007.2 -3.3 43
2018-01-31 16:00:00 17.5 18 Este 24 Este 0 1007.4 -4.6 41
2018-01-31 15:00:00 16.2 17 Nordeste 28 Nordeste 0 1008 -4.8 46
2018-01-31 14:00:00 14 10 Este 21 Este 0 1010.5 -2.4 58
2018-01-31 13:00:00 12.8 13 Este 22 Este 0 1012 -0.8 63
2018-01-31 12:00:00 11.7 15 Este 22 Nordeste 0 1012.8 0.2 68
2018-01-31 11:00:00 9.7 15 Nordeste 26 Este 0 1012.9 0.3 76
2018-01-31 10:00:00 7.3 14 Este 21 Este 0 1012.8 0.6 87
2018-01-31 09:00:00 6.4 11 Este 21 Nordeste 0 1012.6 0.5 90
2018-01-31 08:00:00 6.1 16 Norte 21 Norte 0 1012.6 0.3 93
2018-01-31 07:00:00 5 0 Calma 8 Este 0 1012.2 -0.6 94
2018-01-31 06:00:00 5.2 4 Norte 8 Este 0 1012.1 -1.1 95
2018-01-31 05:00:00 4.5 0 Calma 5 Este 0 1012.3 -1.2 97
2018-01-31 04:00:00 4.6 0 Calma -- -- 0 1012.8 -0.5 95
2018-01-31 03:00:00 5.1 0 Calma 5 Sur 0 1013.2 -0.1 95
2018-01-31 02:00:00 5.6 0 Calma -- -- 0 1013.5 0.2 94
2018-01-31 01:00:00 6 0 Calma -- -- 0 1013.3 0.1 92
2018-01-31 00:00:00 6.8 0 Calma -- -- 0 1013.3 0.5 90
2018-01-30 23:00:00 7.7 0 Calma 4 Nordeste 0 1013.3 0.8 87
2018-01-30 22:00:00 8.4 0 Calma 5 Sudoeste 0 1013.2 1 83
2018-01-30 21:00:00 9.4 0 Calma -- -- 0 1012.8 0.8 79
2018-01-30 20:00:00 10.9 0 Calma 4 Oeste 0 1012.5 0.3 73
2018-01-30 19:00:00 12.7 0 Calma 5 Oeste 0 1012.2 -0.4 66
2018-01-30 18:00:00 15.4 4 Nordeste 11 Este 0 1012 -1.4 51
2018-01-30 17:00:00 17 5 Este 15 Este 0 1012.2 -2 47
2018-01-30 16:00:00 17.5 10 Este 21 Este 0 1012.6 -2.8 42
2018-01-30 15:00:00 16.6 15 Este 26 Nordeste 0 1013.4 -2.7 44
2018-01-30 14:00:00 17.1 15 Nordeste 26 Este 0 1014.2 -2.2 43
2018-01-30 13:00:00 15.9 16 Este 33 Este 0 1015.4 -0.6 47
2018-01-30 12:00:00 14.2 24 Nordeste 37 Este 0 1016.1 0.1 53
2018-01-30 11:00:00 11 14 Este 30 Este 0 1016.4 0.5 67
2018-01-30 10:00:00 9.5 21 Este 30 Este 0 1016 -0.1 72
2018-01-30 09:00:00 7.4 14 Este 24 Este 0 1016 0 81
2018-01-30 08:00:00 6.6 6 Nordeste 13 Este 0 1015.9 -0.7 86
2018-01-30 07:00:00 5.6 7 Este 13 Este 0 1016.1 -0.3 90
2018-01-30 06:00:00 5 4 Nordeste 8 Nordeste 0 1016 -0.8 92
2018-01-30 05:00:00 6.6 3 Oeste 15 Este 0 1016.6 -0.2 83
2018-01-30 04:00:00 6.8 10 Este 17 Este 0 1016.4 -0.6 84
2018-01-30 03:00:00 6.7 0 Calma 11 Nordeste 0 1016.8 -0.1 83
2018-01-30 02:00:00 8.3 6 Este 17 Este 0 1016.8 -0.2 76
2018-01-30 01:00:00 8.9 9 Este 22 Nordeste 0 1017 0.1 74
2018-01-30 00:00:00 9.9 17 Nordeste 26 Nordeste 0 1016.9 0.2 72
2018-01-29 23:00:00 10 14 Este 24 Este 0 1017 0.5 72
2018-01-29 22:00:00 10.2 14 Este 18 Este 0 1016.9 1.2 70
2018-01-29 21:00:00 10.4 12 Este 13 Este 0 1016.7 1.4 67
2018-01-29 20:00:00 12.6 5 Este 18 Este 0 1016.5 0.9 57
2018-01-29 19:00:00 14.9 16 Este 30 Este 0 1015.7 -0.2 48
2018-01-29 18:00:00 17.8 22 Este 37 Este 0 1015.3 -1.1 39
2018-01-29 17:00:00 18.8 28 Este 45 Este 0 1015.6 -1.4 38
2018-01-29 16:00:00 19.2 32 Este 45 Nordeste 0 1015.9 -2.4 37
2018-01-29 15:00:00 19.1 30 Este 55 Este 0 1016.4 -2.6 36
2018-01-29 14:00:00 18.5 38 Nordeste 54 Nordeste 0 1017 -2.3 37
2018-01-29 13:00:00 17.8 33 Este 61 Nordeste 0 1018.3 -1.2 40
2018-01-29 12:00:00 16.5 37 Nordeste 58 Este 0 1019 -0.2 44
2018-01-29 11:00:00 15.4 32 Nordeste 52 Este 0 1019.3 0.2 48
2018-01-29 10:00:00 13.6 27 Nordeste 46 Nordeste 0 1019.5 0.8 54
2018-01-29 09:00:00 12.6 27 Nordeste 45 Nordeste 0 1019.2 0.9 58
2018-01-29 08:00:00 11.3 22 Nordeste 32 Nordeste 0 1019.1 1.1 66
2018-01-29 07:00:00 11.4 14 Este 32 Este 0 1018.7 0.2 64
2018-01-29 06:00:00 11 19 Este 35 Este 0 1018.3 -0.1 66
2018-01-29 05:00:00 8.1 14 Este 22 Este 0 1018 -0.9 76
2018-01-29 04:00:00 8.1 15 Este 21 Este 0 1018.5 -0.6 73
2018-01-29 03:00:00 7.1 14 Este 21 Este 0 1018.4 -1.2 75
2018-01-29 02:00:00 7.5 18 Este 24 Este 0 1018.9 -0.6 71
2018-01-29 01:00:00 7.2 17 Este 24 Este 0 1019.1 -0.4 68
2018-01-29 00:00:00 6.3 14 Este 17 Este 0 1019.6 0.3 70
2018-01-28 23:00:00 5.8 11 Este 17 Este 0 1019.5 0.3 74
2018-01-28 22:00:00 7.2 13 Este 15 Este 0 1019.5 0.6 66
2018-01-28 21:00:00 9.7 9 Nordeste 21 Nordeste 0 1019.3 1.6 55
2018-01-28 20:00:00 10.2 9 Nordeste 28 Nordeste 0 1019.2 2.2 54
2018-01-28 19:00:00 13 21 Este 39 Este 0 1018.9 3.1 41
2018-01-28 18:00:00 14.5 23 Este 52 Este 0 1017.7 1.7 41
2018-01-28 17:00:00 15.7 38 Este 65 Este 0 1017 0.2 38
2018-01-28 16:00:00 16.1 46 Este 68 Este 0 1015.8 -1.5 36
2018-01-28 15:00:00 15.5 42 Este 63 Este 0 1016 -1.5 41
2018-01-28 14:00:00 14.7 35 Este 52 Este 0 1016.8 -0.4 51
2018-01-28 13:00:00 13.4 32 Nordeste 52 Este 0 1017.3 0.5 57
2018-01-28 12:00:00 11.8 25 Nordeste 46 Este 0 1017.5 1.3 64
2018-01-28 11:00:00 9.9 19 Nordeste 30 Este 0 1017.2 0.8 67
2018-01-28 10:00:00 6.9 4 Este 17 Este 0 1016.8 0.7 76
2018-01-28 09:00:00 4 0 Calma 13 Este 0 1016.2 0.3 83
2018-01-28 08:00:00 5.3 10 Este 21 Sudeste 0 1016.4 0.6 76
2018-01-28 07:00:00 3.8 3 Este 13 Sudeste 0 1016.1 -0.3 86
2018-01-28 06:00:00 2.4 0 Calma 8 Sur 0 1015.9 -1 91
2018-01-28 05:00:00 0.8 3 Sudoeste 9 Sudoeste 0 1015.8 -1.4 96
2018-01-28 04:00:00 0.9 4 Sudoeste 8 Oeste 0 1016.4 -1.2 97
2018-01-28 03:00:00 1.3 0 Calma 2 Norte 0 1016.9 -0.8 95
2018-01-28 02:00:00 2 0 Calma 4 Sudoeste 0 1017.2 -0.3 92
2018-01-28 01:00:00 2.8 0 Calma 5 Oeste 0 1017.6 0.1 89
2018-01-28 00:00:00 3.9 2 Oeste 5 Oeste 0 1017.7 0.4 87
2018-01-27 23:00:00 4.8 3 Oeste 5 Oeste 0 1017.5 0.5 82
2018-01-27 22:00:00 5.9 0 Calma 11 Sudeste 0 1017.5 0.8 76
2018-01-27 21:00:00 5.4 3 Sur 11 Sudoeste 0 1017.3 0.8 79
2018-01-27 20:00:00 7.1 0 Calma 9 Norte 0 1017 0.8 63
2018-01-27 19:00:00 9.5 9 Norte 22 Nordeste 0 1016.7 0.9 53
2018-01-27 18:00:00 12.3 14 Nordeste 35 Este 0 1016.5 0.5 41
2018-01-27 17:00:00 13.6 23 Nordeste 37 Nordeste 0 1016.2 -0.9 36
2018-01-27 16:00:00 13.4 17 Norte 33 Nordeste 0 1015.8 -1.9 39
2018-01-27 15:00:00 13 22 Nordeste 39 Nordeste 0 1016 -2.5 41
2018-01-27 14:00:00 13.7 24 Nordeste 45 Nordeste 0 1017.1 -1.7 40
2018-01-27 13:00:00 12.4 23 Norte 35 Nordeste 0 1017.7 -1.2 42
2018-01-27 12:00:00 12.6 20 Nordeste 30 Norte 0 1018.5 -0.1 43
2018-01-27 11:00:00 9.1 3 Oeste 8 Oeste 0 1018.8 0.9 64
2018-01-27 10:00:00 5.3 0 Calma 5 Noroeste 0 1018.9 1 82
2018-01-27 09:00:00 1.1 2 Sudoeste -- -- -- 1018.6 1 94
2018-01-27 08:00:00 1 4 Sudoeste 11 Sur 0 1017.9 0.5 94
2018-01-27 07:00:00 1.8 4 Sudoeste 11 Sur 0 1017.9 0.7 90
2018-01-27 06:00:00 2.2 2 Sudeste 8 Sur 0 1017.6 0.4 90
2018-01-27 05:00:00 5.7 2 Sudeste 26 Norte 0 1017.4 0 74
2018-01-27 04:00:00 7.6 13 Norte 26 Norte 0 1017.2 -0.6 67
2018-01-27 03:00:00 7.7 10 Norte 21 Norte 0 1017.2 -0.5 66
2018-01-27 02:00:00 8.1 10 Norte 18 Norte 0 1017.4 0.1 65
2018-01-27 01:00:00 5.5 0 Calma 11 Noroeste 0 1017.8 1.2 77
2018-01-27 00:00:00 7 5 Nordeste 17 Sudoeste 0 1017.7 1.5 70
2018-01-26 23:00:00 6 8 Sudoeste 13 Sudoeste 0 1017.3 1.1 75
2018-01-26 22:00:00 7.3 6 Oeste 21 Sur 0 1016.6 0.7 72
2018-01-26 21:00:00 6.4 15 Sur 18 Sur 0 1016.2 0.9 77
2018-01-26 20:00:00 8.1 8 Noroeste 18 Noroeste 0 1016.2 1.7 73
2018-01-26 19:00:00 10.3 14 Noroeste 21 Noroeste 0 1015.9 1.7 62
2018-01-26 18:00:00 12.9 17 Noroeste 26 Noroeste 0 1015.3 0.8 52
2018-01-26 17:00:00 14.3 18 Noroeste 30 Noroeste 0 1014.5 -0.9 44
2018-01-26 16:00:00 14.6 10 Noroeste 24 Oeste 0 1014.2 -2 44
2018-01-26 15:00:00 13.5 11 Sudoeste 28 Sudoeste 0 1014.5 -2 59
2018-01-26 14:00:00 12.4 12 Sudoeste 22 Sur 0 1015.4 -0.8 61
2018-01-26 13:00:00 11.1 14 Sudoeste 21 Sudoeste 0 1016.2 0.8 67
2018-01-26 12:00:00 9.6 13 Oeste 18 Oeste 0 1016.5 1.7 73
2018-01-26 11:00:00 7.8 12 Sudoeste 21 Oeste 0 1016.2 2.1 81
2018-01-26 10:00:00 5.4 9 Oeste 15 Oeste 0 1015.4 2 89
2018-01-26 09:00:00 3.1 3 Sur 13 Oeste 0 1014.8 1.8 95
2018-01-26 08:00:00 3.6 9 Oeste 15 Oeste 0 1014.1 1.9 95
2018-01-26 07:00:00 3.2 5 Oeste 11 Oeste 0 1013.4 1.2 96
2018-01-26 06:00:00 3.2 0 Calma 13 Oeste 0 1013 1.3 96
2018-01-26 05:00:00 3.7 0 Calma 11 Este 0 1012.2 0.8 97
2018-01-26 04:00:00 4.5 2 Oeste 17 Oeste 0 1012.2 0.6 96
2018-01-26 03:00:00 5.9 13 Sudoeste 21 Oeste 0 1011.7 0 92
2018-01-26 02:00:00 6.5 5 Noroeste 21 Oeste 0 1011.4 0.2 90
2018-01-26 01:00:00 7.4 13 Sudoeste 28 Oeste 0 1011.6 1.1 88
2018-01-26 00:00:00 8.3 18 Oeste 28 Oeste 0 1011.7 1.3 91
2018-01-25 23:00:00 9.3 13 Oeste 22 Oeste 0 1011.2 0.6 98
2018-01-25 22:00:00 10.1 10 Oeste 22 Oeste 0 1010.5 0.3 98
2018-01-25 21:00:00 10.3 13 Sudoeste 26 Oeste 1.7 1010.4 0.2 98
2018-01-25 20:00:00 10.4 14 Oeste 32 Oeste 1.3 1010.6 0.5 98
2018-01-25 19:00:00 10.4 13 Oeste 30 Oeste 0.3 1010.2 0.2 97
2018-01-25 18:00:00 11.2 18 Oeste 39 Oeste 0.2 1010.2 -0.3 89
2018-01-25 17:00:00 12.4 23 Oeste 42 Oeste 0 1010.1 -1.8 80
2018-01-25 16:00:00 13.9 14 Oeste 32 Oeste 0 1010 -3.2 79
2018-01-25 15:00:00 13.8 10 Oeste 22 Sudoeste 0 1010.5 -3.4 81
2018-01-25 14:00:00 13 13 Oeste 26 Oeste 0 1011.9 -1.9 87
2018-01-25 13:00:00 12 8 Oeste 15 Oeste 0 1013.2 -0.5 93
2018-01-25 12:00:00 11 6 Oeste 13 Oeste 0 1013.9 0.1 97
2018-01-25 11:00:00 10.2 0 Calma -- -- 0 1013.8 -0.1 99
2018-01-25 10:00:00 9.3 0 Calma -- -- 0 1013.7 0.1 99
2018-01-25 09:00:00 8.8 0 Calma -- -- 0 1013.8 0.3 99
2018-01-25 08:00:00 8.6 0 Calma -- -- 0 1013.9 0.1 99
2018-01-25 07:00:00 8.4 0 Calma -- -- 0 1013.6 -0.5 98
2018-01-25 06:00:00 8.1 0 Calma -- -- 0 1013.5 -0.7 98
2018-01-25 05:00:00 7.7 0 Calma -- -- 0 1013.8 -0.6 99
2018-01-25 04:00:00 7.2 0 Calma -- -- 0 1014.1 -0.6 99
2018-01-25 03:00:00 5.8 0 Calma -- -- 0 1014.2 -0.7 98
2018-01-25 02:00:00 6 0 Calma -- -- 0 1014.4 -0.4 97
2018-01-25 01:00:00 6.5 0 Calma -- -- 0 1014.7 0.3 97
2018-01-25 00:00:00 7.3 0 Calma -- -- 0 1014.9 0.7 95
2018-01-24 23:00:00 8.1 0 Calma 5 Sudoeste 0 1014.8 0.5 93
2018-01-24 22:00:00 8.8 3 Sudoeste 5 Sur 0 1014.4 0.4 90
2018-01-24 21:00:00 10.2 0 Calma -- -- 0 1014.2 0.4 85
2018-01-24 20:00:00 12.1 0 Calma -- -- 0 1014.3 0.4 79
2018-01-24 19:00:00 15 0 Calma -- -- 0 1014 -0.1 67
2018-01-24 18:00:00 19.1 0 Calma -- -- 0 1013.8 -0.9 47
2018-01-24 17:00:00 20.2 0 Calma -- -- 0 1013.9 -1.8 51
2018-01-24 16:00:00 20.6 0 Calma 5 Este 0 1014.1 -2.7 45
2018-01-24 15:00:00 18.5 3 Este 15 Este 0 1014.7 -2.9 50
2018-01-24 14:00:00 16.6 8 Este 18 Este 0 1015.7 -2.1 54
2018-01-24 13:00:00 14.7 13 Este 18 Este 0 1016.8 -0.7 62
2018-01-24 12:00:00 12.5 13 Este 18 Este 0 1017.6 0.4 72
2018-01-24 11:00:00 9.8 10 Este 15 Este 0 1017.8 0.9 83
2018-01-24 10:00:00 7.3 5 Este 8 Este 0 1017.5 0.9 95
2018-01-24 09:00:00 3.8 0 Calma 4 Este 0 1017.2 0.8 100
2018-01-24 08:00:00 4.1 0 Calma 8 Este 0 1016.9 0.5 100
2018-01-24 07:00:00 4.1 7 Este 8 Este 0 1016.6 0.1 100
2018-01-24 06:00:00 4.1 0 Calma 5 Este 0 1016.4 -0.2 100
2018-01-24 05:00:00 3.9 0 Calma -- -- 0 1016.4 -0.3 100
2018-01-24 04:00:00 4 0 Calma -- -- 0 1016.5 -0.3 99
2018-01-24 03:00:00 4.5 0 Calma -- -- 0 1016.6 -0.3 99
2018-01-24 02:00:00 4.9 0 Calma -- -- 0 1016.7 0.1 98
2018-01-24 01:00:00 5.9 0 Calma -- -- 0 1016.8 0.6 98
2018-01-24 00:00:00 6.4 0 Calma -- -- 0 1016.9 0.8 97
2018-01-23 23:00:00 7.4 0 Calma -- -- 0 1016.6 0.8 96
2018-01-23 22:00:00 8.3 0 Calma -- -- 0 1016.2 1 93
2018-01-23 21:00:00 9.8 0 Calma -- -- 0 1016.1 1.3 87
2018-01-23 20:00:00 12.1 0 Calma -- -- 0 1015.8 1.2 79
2018-01-23 19:00:00 15.7 0 Calma -- -- 0 1015.2 0.7 67
2018-01-23 18:00:00 19.8 0 Calma -- -- 0 1014.8 -0.1 51
2018-01-23 17:00:00 21.5 0 Calma 4 Noroeste 0 1014.6 -1.1 42
2018-01-23 16:00:00 19.7 0 Calma 5 Este 0 1014.5 -2.2 45
2018-01-23 15:00:00 19.1 0 Calma 8 Sudeste 0 1014.9 -2.6 50
2018-01-23 14:00:00 17.3 0 Calma 4 Nordeste 0 1015.7 -2.2 58
2018-01-23 13:00:00 14.5 2 Este 11 Este 0 1016.7 -0.9 66
2018-01-23 12:00:00 12.2 5 Este 15 Este 0 1017.5 0.1 74
2018-01-23 11:00:00 9.7 5 Este 13 Este 0 1017.9 1.1 84
2018-01-23 10:00:00 5.6 0 Calma -- -- 0 1017.6 1.2 99
2018-01-23 09:00:00 2.3 0 Calma -- -- 0 1017.4 1 100
2018-01-23 08:00:00 1.9 0 Calma -- -- 0 1016.8 0.3 100
2018-01-23 07:00:00 2.2 0 Calma -- -- 0 1016.4 -0.4 100
2018-01-23 06:00:00 2.6 0 Calma 5 Este 0 1016.4 -0.6 100
2018-01-23 05:00:00 3.3 0 Calma -- -- 0 1016.5 -0.4 100
2018-01-23 04:00:00 3.8 0 Calma -- -- 0 1016.8 -0.4 99
2018-01-23 03:00:00 4.4 0 Calma -- -- 0 1017 -0.2 99
2018-01-23 02:00:00 4.8 0 Calma -- -- 0 1016.9 -0.1 98
2018-01-23 01:00:00 6.1 0 Calma -- -- 0 1017.2 0.4 97
2018-01-23 00:00:00 6.7 0 Calma 2 Sudeste 0 1017.2 0.7 97
2018-01-22 23:00:00 7.9 0 Calma 5 Nordeste 0 1017 0.8 97
2018-01-22 22:00:00 8.1 0 Calma -- -- 0 1016.8 0.9 96
2018-01-22 21:00:00 9.8 0 Calma -- -- 0 1016.5 0.8 94
2018-01-22 20:00:00 11.5 0 Calma -- -- 0 1016.2 0.5 89
2018-01-22 19:00:00 14.4 0 Calma -- -- 0 1015.9 0.2 78
2018-01-22 18:00:00 18.1 0 Calma -- -- 0 1015.7 -0.6 62
2018-01-22 17:00:00 19 0 Calma 4 Noroeste 0 1015.7 -1.5 58
2018-01-22 16:00:00 18.2 0 Calma 4 Oeste 0 1015.7 -2.6 60
2018-01-22 15:00:00 16.5 0 Calma 11 Este 0 1016.3 -2.9 65
2018-01-22 14:00:00 15 4 Nordeste 17 Este 0 1017.2 -2.6 69
2018-01-22 13:00:00 12.8 7 Nordeste 18 Nordeste 0 1018.3 -1.4 77
2018-01-22 12:00:00 9.8 8 Este 17 Este 0 1019.2 0 89
2018-01-22 11:00:00 6.3 4 Nordeste 11 Nordeste 0 1019.8 0.6 99
2018-01-22 10:00:00 4.7 0 Calma 8 Este 0 1019.7 0.8 99
2018-01-22 09:00:00 4.8 3 Este 8 Este 0 1019.2 0.6 99
2018-01-22 08:00:00 4 4 Este 8 Este 0 1019.2 0.4 99
2018-01-22 07:00:00 2.9 0 Calma -- -- 0 1018.9 0.1 99
2018-01-22 06:00:00 2.7 0 Calma 8 Sudoeste 0 1018.6 -0.3 99
2018-01-22 05:00:00 3.7 0 Calma 5 Este 0 1018.8 -0.4 99
2018-01-22 04:00:00 4.5 0 Calma 8 Nordeste 0 1018.8 -0.8 99
2018-01-22 03:00:00 4 0 Calma 5 Este 0 1018.9 -0.6 99
2018-01-22 02:00:00 4.8 0 Calma -- -- 0 1019.2 -0.5 99
2018-01-22 01:00:00 4.9 0 Calma -- -- 0 1019.6 0 98
2018-01-22 00:00:00 5.7 0 Calma -- -- 0 1019.5 0.1 97